sensor_id;sensor_type;location;lat;lon;timestamp;P1;durP1;ratioP1;P2;durP2;ratioP2
86077;SDS011;76680;59.304;18.294;2024-02-21T00:01:21;6.37;;;4.60;;
86077;SDS011;76680;59.304;18.294;2024-02-21T00:03:47;6.77;;;4.77;;
86077;SDS011;76680;59.304;18.294;2024-02-21T00:06:13;7.50;;;5.00;;
86077;SDS011;76680;59.304;18.294;2024-02-21T00:08:39;7.50;;;4.87;;
86077;SDS011;76680;59.304;18.294;2024-02-21T00:11:04;9.40;;;4.90;;
86077;SDS011;76680;59.304;18.294;2024-02-21T00:13:30;6.70;;;4.70;;
86077;SDS011;76680;59.304;18.294;2024-02-21T00:15:56;8.20;;;4.67;;
86077;SDS011;76680;59.304;18.294;2024-02-21T00:18:21;6.67;;;4.40;;
86077;SDS011;76680;59.304;18.294;2024-02-21T00:20:47;7.57;;;4.70;;
86077;SDS011;76680;59.304;18.294;2024-02-21T00:23:12;9.93;;;6.40;;
86077;SDS011;76680;59.304;18.294;2024-02-21T00:25:38;9.37;;;6.40;;
86077;SDS011;76680;59.304;18.294;2024-02-21T00:28:03;7.13;;;5.13;;
86077;SDS011;76680;59.304;18.294;2024-02-21T00:30:30;6.90;;;5.23;;
86077;SDS011;76680;59.304;18.294;2024-02-21T00:32:56;8.60;;;5.20;;
86077;SDS011;76680;59.304;18.294;2024-02-21T00:35:22;7.30;;;4.83;;
86077;SDS011;76680;59.304;18.294;2024-02-21T00:37:47;7.40;;;4.70;;
86077;SDS011;76680;59.304;18.294;2024-02-21T00:40:12;6.63;;;5.53;;
86077;SDS011;76680;59.304;18.294;2024-02-21T00:42:41;9.77;;;5.20;;
86077;SDS011;76680;59.304;18.294;2024-02-21T00:45:06;8.20;;;4.90;;
86077;SDS011;76680;59.304;18.294;2024-02-21T00:47:33;6.13;;;4.23;;
86077;SDS011;76680;59.304;18.294;2024-02-21T00:49:58;6.67;;;4.87;;
86077;SDS011;76680;59.304;18.294;2024-02-21T00:52:24;7.87;;;5.10;;
86077;SDS011;76680;59.304;18.294;2024-02-21T00:54:49;7.00;;;5.20;;
86077;SDS011;76680;59.304;18.294;2024-02-21T00:57:15;8.53;;;4.67;;
86077;SDS011;76680;59.304;18.294;2024-02-21T00:59:40;5.90;;;4.53;;
86077;SDS011;76680;59.304;18.294;2024-02-21T01:02:06;7.47;;;4.43;;
86077;SDS011;76680;59.304;18.294;2024-02-21T01:04:32;6.27;;;4.47;;
86077;SDS011;76680;59.304;18.294;2024-02-21T01:06:57;7.67;;;4.77;;
86077;SDS011;76680;59.304;18.294;2024-02-21T01:09:23;10.40;;;5.20;;
86077;SDS011;76680;59.304;18.294;2024-02-21T01:11:48;8.60;;;4.77;;
86077;SDS011;76680;59.304;18.294;2024-02-21T01:14:14;7.33;;;4.67;;
86077;SDS011;76680;59.304;18.294;2024-02-21T01:16:39;6.63;;;4.70;;
86077;SDS011;76680;59.304;18.294;2024-02-21T01:19:05;9.80;;;4.70;;
86077;SDS011;76680;59.304;18.294;2024-02-21T01:21:30;6.67;;;4.53;;
86077;SDS011;76680;59.304;18.294;2024-02-21T01:23:56;5.77;;;4.20;;
86077;SDS011;76680;59.304;18.294;2024-02-21T01:26:21;5.90;;;4.40;;
86077;SDS011;76680;59.304;18.294;2024-02-21T01:28:47;7.43;;;3.50;;
86077;SDS011;76680;59.304;18.294;2024-02-21T01:31:12;7.27;;;4.17;;
86077;SDS011;76680;59.304;18.294;2024-02-21T01:33:38;7.07;;;3.10;;
86077;SDS011;76680;59.304;18.294;2024-02-21T01:36:04;5.33;;;3.83;;
86077;SDS011;76680;59.304;18.294;2024-02-21T01:38:31;10.93;;;3.60;;
86077;SDS011;76680;59.304;18.294;2024-02-21T01:40:57;7.40;;;4.20;;
86077;SDS011;76680;59.304;18.294;2024-02-21T01:43:23;7.77;;;4.00;;
86077;SDS011;76680;59.304;18.294;2024-02-21T01:45:49;4.77;;;3.37;;
86077;SDS011;76680;59.304;18.294;2024-02-21T01:48:20;8.60;;;4.13;;
86077;SDS011;76680;59.304;18.294;2024-02-21T01:50:47;5.00;;;3.60;;
86077;SDS011;76680;59.304;18.294;2024-02-21T01:53:30;5.53;;;3.70;;
86077;SDS011;76680;59.304;18.294;2024-02-21T01:56:00;9.67;;;4.23;;
86077;SDS011;76680;59.304;18.294;2024-02-21T01:58:26;7.13;;;4.43;;
86077;SDS011;76680;59.304;18.294;2024-02-21T02:00:53;12.13;;;5.17;;
86077;SDS011;76680;59.304;18.294;2024-02-21T02:03:21;32.03;;;6.50;;
86077;SDS011;76680;59.304;18.294;2024-02-21T02:05:48;14.60;;;5.67;;
86077;SDS011;76680;59.304;18.294;2024-02-21T02:08:15;20.20;;;4.73;;
86077;SDS011;76680;59.304;18.294;2024-02-21T02:10:41;6.60;;;4.50;;
86077;SDS011;76680;59.304;18.294;2024-02-21T02:13:07;12.63;;;5.37;;
86077;SDS011;76680;59.304;18.294;2024-02-21T02:18:05;25.07;;;5.50;;
86077;SDS011;76680;59.304;18.294;2024-02-21T02:20:31;23.43;;;6.13;;
86077;SDS011;76680;59.304;18.294;2024-02-21T02:22:57;35.47;;;6.30;;
86077;SDS011;76680;59.304;18.294;2024-02-21T02:25:25;41.47;;;5.70;;
86077;SDS011;76680;59.304;18.294;2024-02-21T02:27:51;13.20;;;4.63;;
86077;SDS011;76680;59.304;18.294;2024-02-21T02:30:17;36.23;;;7.43;;
86077;SDS011;76680;59.304;18.294;2024-02-21T02:32:44;44.63;;;7.77;;
86077;SDS011;76680;59.304;18.294;2024-02-21T02:35:10;43.83;;;8.00;;
86077;SDS011;76680;59.304;18.294;2024-02-21T02:37:36;28.77;;;7.03;;
86077;SDS011;76680;59.304;18.294;2024-02-21T02:40:03;26.27;;;6.77;;
86077;SDS011;76680;59.304;18.294;2024-02-21T02:42:29;49.27;;;8.90;;
86077;SDS011;76680;59.304;18.294;2024-02-21T02:44:54;53.43;;;7.77;;
86077;SDS011;76680;59.304;18.294;2024-02-21T02:47:20;22.37;;;7.57;;
86077;SDS011;76680;59.304;18.294;2024-02-21T02:49:45;14.17;;;6.90;;
86077;SDS011;76680;59.304;18.294;2024-02-21T02:52:15;13.43;;;6.60;;
86077;SDS011;76680;59.304;18.294;2024-02-21T02:54:41;32.40;;;7.50;;
86077;SDS011;76680;59.304;18.294;2024-02-21T02:57:07;10.33;;;3.90;;
86077;SDS011;76680;59.304;18.294;2024-02-21T02:59:32;9.70;;;5.63;;
86077;SDS011;76680;59.304;18.294;2024-02-21T03:01:58;4.60;;;3.47;;
86077;SDS011;76680;59.304;18.294;2024-02-21T03:04:23;10.33;;;5.30;;
86077;SDS011;76680;59.304;18.294;2024-02-21T03:06:48;12.07;;;5.03;;
86077;SDS011;76680;59.304;18.294;2024-02-21T03:09:14;7.17;;;4.77;;
86077;SDS011;76680;59.304;18.294;2024-02-21T03:11:40;5.10;;;3.20;;
86077;SDS011;76680;59.304;18.294;2024-02-21T03:14:08;6.73;;;4.33;;
86077;SDS011;76680;59.304;18.294;2024-02-21T03:16:33;7.10;;;4.17;;
86077;SDS011;76680;59.304;18.294;2024-02-21T03:18:59;8.23;;;3.77;;
86077;SDS011;76680;59.304;18.294;2024-02-21T03:21:24;8.67;;;4.47;;
86077;SDS011;76680;59.304;18.294;2024-02-21T03:23:50;6.80;;;3.60;;
86077;SDS011;76680;59.304;18.294;2024-02-21T03:26:15;5.17;;;3.67;;
86077;SDS011;76680;59.304;18.294;2024-02-21T03:28:42;6.80;;;4.40;;
86077;SDS011;76680;59.304;18.294;2024-02-21T03:31:11;4.40;;;3.43;;
86077;SDS011;76680;59.304;18.294;2024-02-21T03:33:37;6.07;;;4.37;;
86077;SDS011;76680;59.304;18.294;2024-02-21T03:36:02;5.63;;;3.07;;
86077;SDS011;76680;59.304;18.294;2024-02-21T03:38:28;6.63;;;4.07;;
86077;SDS011;76680;59.304;18.294;2024-02-21T03:40:54;4.97;;;3.40;;
86077;SDS011;76680;59.304;18.294;2024-02-21T03:43:19;4.40;;;3.30;;
86077;SDS011;76680;59.304;18.294;2024-02-21T03:45:45;2.97;;;2.40;;
86077;SDS011;76680;59.304;18.294;2024-02-21T03:48:10;2.77;;;2.40;;
86077;SDS011;76680;59.304;18.294;2024-02-21T03:50:36;3.90;;;2.67;;
86077;SDS011;76680;59.304;18.294;2024-02-21T03:53:01;2.67;;;1.40;;
86077;SDS011;76680;59.304;18.294;2024-02-21T03:55:27;8.03;;;2.70;;
86077;SDS011;76680;59.304;18.294;2024-02-21T03:57:52;2.67;;;1.90;;
86077;SDS011;76680;59.304;18.294;2024-02-21T04:00:18;5.73;;;2.50;;
86077;SDS011;76680;59.304;18.294;2024-02-21T04:02:43;3.77;;;2.83;;
86077;SDS011;76680;59.304;18.294;2024-02-21T04:05:09;2.97;;;2.40;;
86077;SDS011;76680;59.304;18.294;2024-02-21T04:07:37;2.00;;;1.73;;
86077;SDS011;76680;59.304;18.294;2024-02-21T04:10:03;5.30;;;1.87;;
86077;SDS011;76680;59.304;18.294;2024-02-21T04:12:29;3.10;;;1.87;;
86077;SDS011;76680;59.304;18.294;2024-02-21T04:14:55;3.40;;;2.23;;
86077;SDS011;76680;59.304;18.294;2024-02-21T04:17:20;2.83;;;2.20;;
86077;SDS011;76680;59.304;18.294;2024-02-21T04:19:45;5.80;;;2.23;;
86077;SDS011;76680;59.304;18.294;2024-02-21T04:22:11;2.50;;;1.90;;
86077;SDS011;76680;59.304;18.294;2024-02-21T04:24:36;2.57;;;1.73;;
86077;SDS011;76680;59.304;18.294;2024-02-21T04:27:02;4.20;;;1.53;;
86077;SDS011;76680;59.304;18.294;2024-02-21T04:29:27;4.87;;;2.47;;
86077;SDS011;76680;59.304;18.294;2024-02-21T04:31:53;3.43;;;1.90;;
86077;SDS011;76680;59.304;18.294;2024-02-21T04:34:19;1.27;;;1.07;;
86077;SDS011;76680;59.304;18.294;2024-02-21T04:36:44;4.43;;;1.60;;
86077;SDS011;76680;59.304;18.294;2024-02-21T04:39:10;3.40;;;2.00;;
86077;SDS011;76680;59.304;18.294;2024-02-21T04:41:36;3.37;;;1.83;;
86077;SDS011;76680;59.304;18.294;2024-02-21T04:44:02;1.40;;;1.30;;
86077;SDS011;76680;59.304;18.294;2024-02-21T04:46:29;2.23;;;1.60;;
86077;SDS011;76680;59.304;18.294;2024-02-21T04:48:54;8.33;;;2.03;;
86077;SDS011;76680;59.304;18.294;2024-02-21T04:51:20;4.30;;;1.50;;
86077;SDS011;76680;59.304;18.294;2024-02-21T04:53:46;4.60;;;2.00;;
86077;SDS011;76680;59.304;18.294;2024-02-21T04:56:11;2.07;;;1.47;;
86077;SDS011;76680;59.304;18.294;2024-02-21T04:58:37;4.07;;;1.60;;
86077;SDS011;76680;59.304;18.294;2024-02-21T05:01:04;14.07;;;2.20;;
86077;SDS011;76680;59.304;18.294;2024-02-21T05:03:30;2.40;;;1.70;;
86077;SDS011;76680;59.304;18.294;2024-02-21T05:05:55;2.97;;;2.13;;
86077;SDS011;76680;59.304;18.294;2024-02-21T05:08:21;7.37;;;2.70;;
86077;SDS011;76680;59.304;18.294;2024-02-21T05:10:46;5.60;;;2.63;;
86077;SDS011;76680;59.304;18.294;2024-02-21T05:13:12;6.60;;;2.40;;
86077;SDS011;76680;59.304;18.294;2024-02-21T05:15:37;9.83;;;2.07;;
86077;SDS011;76680;59.304;18.294;2024-02-21T05:18:03;5.43;;;1.47;;
86077;SDS011;76680;59.304;18.294;2024-02-21T05:20:29;5.53;;;2.53;;
86077;SDS011;76680;59.304;18.294;2024-02-21T05:22:55;7.60;;;2.80;;
86077;SDS011;76680;59.304;18.294;2024-02-21T05:25:20;5.90;;;2.30;;
86077;SDS011;76680;59.304;18.294;2024-02-21T05:27:45;4.40;;;2.03;;
86077;SDS011;76680;59.304;18.294;2024-02-21T05:30:11;5.30;;;1.47;;
86077;SDS011;76680;59.304;18.294;2024-02-21T05:32:37;6.03;;;2.63;;
86077;SDS011;76680;59.304;18.294;2024-02-21T05:35:02;3.30;;;1.80;;
86077;SDS011;76680;59.304;18.294;2024-02-21T05:37:28;12.40;;;2.87;;
86077;SDS011;76680;59.304;18.294;2024-02-21T05:39:54;10.30;;;2.50;;
86077;SDS011;76680;59.304;18.294;2024-02-21T05:42:19;7.23;;;2.90;;
86077;SDS011;76680;59.304;18.294;2024-02-21T05:44:45;20.70;;;2.97;;
86077;SDS011;76680;59.304;18.294;2024-02-21T05:47:10;3.90;;;2.87;;
86077;SDS011;76680;59.304;18.294;2024-02-21T05:49:37;5.67;;;2.13;;
86077;SDS011;76680;59.304;18.294;2024-02-21T05:52:02;10.73;;;2.17;;
86077;SDS011;76680;59.304;18.294;2024-02-21T05:54:28;6.27;;;2.33;;
86077;SDS011;76680;59.304;18.294;2024-02-21T05:56:53;6.73;;;2.47;;
86077;SDS011;76680;59.304;18.294;2024-02-21T05:59:19;4.57;;;2.20;;
86077;SDS011;76680;59.304;18.294;2024-02-21T06:01:44;7.30;;;1.80;;
86077;SDS011;76680;59.304;18.294;2024-02-21T06:04:10;6.67;;;2.10;;
86077;SDS011;76680;59.304;18.294;2024-02-21T06:06:35;4.90;;;3.03;;
86077;SDS011;76680;59.304;18.294;2024-02-21T06:09:01;3.70;;;2.23;;
86077;SDS011;76680;59.304;18.294;2024-02-21T06:11:27;6.17;;;2.40;;
86077;SDS011;76680;59.304;18.294;2024-02-21T06:13:53;10.23;;;2.47;;
86077;SDS011;76680;59.304;18.294;2024-02-21T06:16:18;3.73;;;1.97;;
86077;SDS011;76680;59.304;18.294;2024-02-21T06:18:44;7.57;;;3.00;;
86077;SDS011;76680;59.304;18.294;2024-02-21T06:21:09;9.60;;;2.60;;
86077;SDS011;76680;59.304;18.294;2024-02-21T06:23:36;10.67;;;3.00;;
86077;SDS011;76680;59.304;18.294;2024-02-21T06:26:02;16.73;;;2.97;;
86077;SDS011;76680;59.304;18.294;2024-02-21T06:28:27;7.87;;;2.50;;
86077;SDS011;76680;59.304;18.294;2024-02-21T06:30:53;8.50;;;3.40;;
86077;SDS011;76680;59.304;18.294;2024-02-21T06:33:18;4.57;;;2.50;;
86077;SDS011;76680;59.304;18.294;2024-02-21T06:35:47;7.83;;;2.93;;
86077;SDS011;76680;59.304;18.294;2024-02-21T06:38:13;17.47;;;3.47;;
86077;SDS011;76680;59.304;18.294;2024-02-21T06:40:39;14.40;;;3.97;;
86077;SDS011;76680;59.304;18.294;2024-02-21T06:43:05;14.13;;;3.30;;
86077;SDS011;76680;59.304;18.294;2024-02-21T06:45:31;15.13;;;4.17;;
86077;SDS011;76680;59.304;18.294;2024-02-21T06:47:56;9.50;;;3.33;;
86077;SDS011;76680;59.304;18.294;2024-02-21T06:50:22;16.97;;;3.87;;
86077;SDS011;76680;59.304;18.294;2024-02-21T06:52:47;22.17;;;4.10;;
86077;SDS011;76680;59.304;18.294;2024-02-21T06:55:13;10.80;;;3.47;;
86077;SDS011;76680;59.304;18.294;2024-02-21T06:57:38;17.97;;;3.40;;
86077;SDS011;76680;59.304;18.294;2024-02-21T07:00:04;11.90;;;3.47;;
86077;SDS011;76680;59.304;18.294;2024-02-21T07:02:33;19.40;;;3.57;;
86077;SDS011;76680;59.304;18.294;2024-02-21T07:04:59;9.87;;;3.47;;
86077;SDS011;76680;59.304;18.294;2024-02-21T07:07:24;16.93;;;3.40;;
86077;SDS011;76680;59.304;18.294;2024-02-21T07:09:49;9.03;;;3.50;;
86077;SDS011;76680;59.304;18.294;2024-02-21T07:12:15;17.43;;;4.07;;
86077;SDS011;76680;59.304;18.294;2024-02-21T07:14:40;15.83;;;3.67;;
86077;SDS011;76680;59.304;18.294;2024-02-21T07:17:06;24.43;;;4.53;;
86077;SDS011;76680;59.304;18.294;2024-02-21T07:19:31;20.97;;;4.43;;
86077;SDS011;76680;59.304;18.294;2024-02-21T07:21:57;38.23;;;4.37;;
86077;SDS011;76680;59.304;18.294;2024-02-21T07:24:22;19.37;;;4.20;;
86077;SDS011;76680;59.304;18.294;2024-02-21T07:26:48;19.67;;;5.07;;
86077;SDS011;76680;59.304;18.294;2024-02-21T07:29:13;18.17;;;5.27;;
86077;SDS011;76680;59.304;18.294;2024-02-21T07:31:42;24.07;;;6.30;;
86077;SDS011;76680;59.304;18.294;2024-02-21T07:34:08;12.43;;;4.40;;
86077;SDS011;76680;59.304;18.294;2024-02-21T07:36:33;23.53;;;4.83;;
86077;SDS011;76680;59.304;18.294;2024-02-21T07:38:59;26.00;;;4.90;;
86077;SDS011;76680;59.304;18.294;2024-02-21T07:41:25;16.73;;;4.80;;
86077;SDS011;76680;59.304;18.294;2024-02-21T07:43:51;16.10;;;4.00;;
86077;SDS011;76680;59.304;18.294;2024-02-21T07:46:17;10.63;;;3.93;;
86077;SDS011;76680;59.304;18.294;2024-02-21T07:48:43;18.73;;;3.87;;
86077;SDS011;76680;59.304;18.294;2024-02-21T07:51:10;14.90;;;4.17;;
86077;SDS011;76680;59.304;18.294;2024-02-21T07:53:36;18.37;;;4.70;;
86077;SDS011;76680;59.304;18.294;2024-02-21T07:56:01;25.50;;;3.70;;
86077;SDS011;76680;59.304;18.294;2024-02-21T07:58:27;37.07;;;4.13;;
86077;SDS011;76680;59.304;18.294;2024-02-21T08:00:52;13.80;;;3.60;;
86077;SDS011;76680;59.304;18.294;2024-02-21T08:03:18;12.20;;;2.37;;
86077;SDS011;76680;59.304;18.294;2024-02-21T08:05:43;16.33;;;3.20;;
86077;SDS011;76680;59.304;18.294;2024-02-21T08:08:09;12.97;;;4.07;;
86077;SDS011;76680;59.304;18.294;2024-02-21T08:10:34;2.53;;;1.00;;
86077;SDS011;76680;59.304;18.294;2024-02-21T08:13:00;17.20;;;3.07;;
86077;SDS011;76680;59.304;18.294;2024-02-21T08:15:25;23.40;;;5.00;;
86077;SDS011;76680;59.304;18.294;2024-02-21T08:17:54;19.13;;;3.77;;
86077;SDS011;76680;59.304;18.294;2024-02-21T08:20:24;14.03;;;3.70;;
86077;SDS011;76680;59.304;18.294;2024-02-21T08:22:50;15.93;;;4.17;;
86077;SDS011;76680;59.304;18.294;2024-02-21T08:25:15;18.37;;;3.93;;
86077;SDS011;76680;59.304;18.294;2024-02-21T08:27:41;15.63;;;4.00;;
86077;SDS011;76680;59.304;18.294;2024-02-21T08:30:06;10.90;;;2.70;;
86077;SDS011;76680;59.304;18.294;2024-02-21T08:32:33;20.13;;;3.17;;
86077;SDS011;76680;59.304;18.294;2024-02-21T08:35:00;12.63;;;3.40;;
86077;SDS011;76680;59.304;18.294;2024-02-21T08:37:26;16.03;;;4.43;;
86077;SDS011;76680;59.304;18.294;2024-02-21T08:39:52;24.07;;;4.17;;
86077;SDS011;76680;59.304;18.294;2024-02-21T08:42:18;16.07;;;3.67;;
86077;SDS011;76680;59.304;18.294;2024-02-21T08:44:44;19.80;;;3.47;;
86077;SDS011;76680;59.304;18.294;2024-02-21T08:47:09;12.87;;;3.93;;
86077;SDS011;76680;59.304;18.294;2024-02-21T08:49:35;16.67;;;3.90;;
86077;SDS011;76680;59.304;18.294;2024-02-21T08:52:01;17.60;;;3.90;;
86077;SDS011;76680;59.304;18.294;2024-02-21T08:54:27;17.63;;;3.73;;
86077;SDS011;76680;59.304;18.294;2024-02-21T08:56:53;10.73;;;2.80;;
86077;SDS011;76680;59.304;18.294;2024-02-21T08:59:19;29.00;;;3.87;;
86077;SDS011;76680;59.304;18.294;2024-02-21T09:01:45;14.10;;;3.10;;
86077;SDS011;76680;59.304;18.294;2024-02-21T09:04:11;27.93;;;3.67;;
86077;SDS011;76680;59.304;18.294;2024-02-21T09:06:37;27.53;;;4.60;;
86077;SDS011;76680;59.304;18.294;2024-02-21T09:09:07;24.23;;;3.80;;
86077;SDS011;76680;59.304;18.294;2024-02-21T09:11:33;12.67;;;3.63;;
86077;SDS011;76680;59.304;18.294;2024-02-21T09:13:59;19.60;;;3.20;;
86077;SDS011;76680;59.304;18.294;2024-02-21T09:16:24;13.23;;;3.67;;
86077;SDS011;76680;59.304;18.294;2024-02-21T09:18:50;11.60;;;3.87;;
86077;SDS011;76680;59.304;18.294;2024-02-21T09:21:15;7.27;;;3.10;;
86077;SDS011;76680;59.304;18.294;2024-02-21T09:23:41;10.80;;;3.70;;
86077;SDS011;76680;59.304;18.294;2024-02-21T09:26:06;7.93;;;2.30;;
86077;SDS011;76680;59.304;18.294;2024-02-21T09:28:33;14.53;;;3.20;;
86077;SDS011;76680;59.304;18.294;2024-02-21T09:30:59;14.30;;;3.60;;
86077;SDS011;76680;59.304;18.294;2024-02-21T09:33:24;14.33;;;4.00;;
86077;SDS011;76680;59.304;18.294;2024-02-21T09:35:50;10.43;;;3.00;;
86077;SDS011;76680;59.304;18.294;2024-02-21T09:38:15;10.50;;;3.27;;
86077;SDS011;76680;59.304;18.294;2024-02-21T09:40:41;11.30;;;3.53;;
86077;SDS011;76680;59.304;18.294;2024-02-21T09:43:07;9.10;;;3.50;;
86077;SDS011;76680;59.304;18.294;2024-02-21T09:45:33;12.80;;;3.70;;
86077;SDS011;76680;59.304;18.294;2024-02-21T09:51:05;11.43;;;3.33;;
86077;SDS011;76680;59.304;18.294;2024-02-21T09:53:32;16.43;;;3.30;;
86077;SDS011;76680;59.304;18.294;2024-02-21T09:55:59;5.90;;;3.73;;
86077;SDS011;76680;59.304;18.294;2024-02-21T09:58:25;20.97;;;3.40;;
86077;SDS011;76680;59.304;18.294;2024-02-21T10:00:52;12.97;;;3.80;;
86077;SDS011;76680;59.304;18.294;2024-02-21T10:03:18;19.93;;;4.17;;
86077;SDS011;76680;59.304;18.294;2024-02-21T10:05:46;24.67;;;5.20;;
86077;SDS011;76680;59.304;18.294;2024-02-21T10:08:15;45.87;;;4.77;;
86077;SDS011;76680;59.304;18.294;2024-02-21T10:10:44;10.77;;;3.60;;
86077;SDS011;76680;59.304;18.294;2024-02-21T10:13:26;18.00;;;3.57;;
86077;SDS011;76680;59.304;18.294;2024-02-21T10:18:31;18.70;;;3.10;;
86077;SDS011;76680;59.304;18.294;2024-02-21T10:21:04;36.87;;;3.80;;
86077;SDS011;76680;59.304;18.294;2024-02-21T10:23:43;24.77;;;3.10;;
86077;SDS011;76680;59.304;18.294;2024-02-21T10:26:18;22.30;;;4.53;;
86077;SDS011;76680;59.304;18.294;2024-02-21T10:28:45;31.47;;;4.57;;
86077;SDS011;76680;59.304;18.294;2024-02-21T10:31:20;31.43;;;4.20;;
86077;SDS011;76680;59.304;18.294;2024-02-21T10:33:59;35.27;;;4.90;;
86077;SDS011;76680;59.304;18.294;2024-02-21T10:36:28;25.73;;;4.13;;
86077;SDS011;76680;59.304;18.294;2024-02-21T10:38:54;20.70;;;3.60;;
86077;SDS011;76680;59.304;18.294;2024-02-21T10:41:20;7.63;;;2.60;;
86077;SDS011;76680;59.304;18.294;2024-02-21T10:43:49;23.40;;;3.57;;
86077;SDS011;76680;59.304;18.294;2024-02-21T10:46:18;7.83;;;2.03;;
86077;SDS011;76680;59.304;18.294;2024-02-21T10:48:45;4.30;;;3.07;;
86077;SDS011;76680;59.304;18.294;2024-02-21T10:51:19;12.10;;;2.77;;
86077;SDS011;76680;59.304;18.294;2024-02-21T10:56:48;12.70;;;3.17;;
86077;SDS011;76680;59.304;18.294;2024-02-21T10:59:15;16.33;;;3.20;;
86077;SDS011;76680;59.304;18.294;2024-02-21T11:01:43;9.63;;;2.60;;
86077;SDS011;76680;59.304;18.294;2024-02-21T11:04:09;179.27;;;6.23;;
86077;SDS011;76680;59.304;18.294;2024-02-21T11:06:38;42.03;;;3.23;;
86077;SDS011;76680;59.304;18.294;2024-02-21T11:09:06;23.53;;;4.97;;
86077;SDS011;76680;59.304;18.294;2024-02-21T11:11:37;9.87;;;3.40;;
86077;SDS011;76680;59.304;18.294;2024-02-21T11:14:26;19.70;;;2.80;;
86077;SDS011;76680;59.304;18.294;2024-02-21T11:16:51;4.40;;;2.90;;
86077;SDS011;76680;59.304;18.294;2024-02-21T11:19:24;4.07;;;2.30;;
86077;SDS011;76680;59.304;18.294;2024-02-21T11:21:51;6.43;;;2.50;;
86077;SDS011;76680;59.304;18.294;2024-02-21T11:24:33;7.93;;;2.63;;
86077;SDS011;76680;59.304;18.294;2024-02-21T11:27:09;12.77;;;2.23;;
86077;SDS011;76680;59.304;18.294;2024-02-21T11:29:47;4.40;;;2.03;;
86077;SDS011;76680;59.304;18.294;2024-02-21T11:32:18;13.60;;;3.10;;
86077;SDS011;76680;59.304;18.294;2024-02-21T11:34:55;10.93;;;2.13;;
86077;SDS011;76680;59.304;18.294;2024-02-21T11:37:29;7.67;;;2.50;;
86077;SDS011;76680;59.304;18.294;2024-02-21T11:39:55;5.57;;;2.60;;
86077;SDS011;76680;59.304;18.294;2024-02-21T11:42:21;3.93;;;2.80;;
86077;SDS011;76680;59.304;18.294;2024-02-21T11:44:47;6.10;;;3.47;;
86077;SDS011;76680;59.304;18.294;2024-02-21T11:47:13;6.53;;;3.00;;
86077;SDS011;76680;59.304;18.294;2024-02-21T11:49:48;4.60;;;2.90;;
86077;SDS011;76680;59.304;18.294;2024-02-21T11:52:17;10.70;;;2.80;;
86077;SDS011;76680;59.304;18.294;2024-02-21T11:54:44;10.60;;;3.03;;
86077;SDS011;76680;59.304;18.294;2024-02-21T11:57:09;6.67;;;2.80;;
86077;SDS011;76680;59.304;18.294;2024-02-21T11:59:39;16.33;;;3.77;;
86077;SDS011;76680;59.304;18.294;2024-02-21T12:02:05;11.63;;;3.87;;
86077;SDS011;76680;59.304;18.294;2024-02-21T12:04:31;35.70;;;3.40;;
86077;SDS011;76680;59.304;18.294;2024-02-21T12:06:57;355.40;;;11.30;;
86077;SDS011;76680;59.304;18.294;2024-02-21T12:09:23;42.23;;;4.20;;
86077;SDS011;76680;59.304;18.294;2024-02-21T12:14:30;89.33;;;5.30;;
86077;SDS011;76680;59.304;18.294;2024-02-21T12:16:56;121.37;;;6.00;;
86077;SDS011;76680;59.304;18.294;2024-02-21T12:19:22;270.30;;;9.23;;
86077;SDS011;76680;59.304;18.294;2024-02-21T12:21:48;206.83;;;9.33;;
86077;SDS011;76680;59.304;18.294;2024-02-21T12:24:15;226.27;;;9.10;;
86077;SDS011;76680;59.304;18.294;2024-02-21T12:26:42;312.00;;;9.57;;
86077;SDS011;76680;59.304;18.294;2024-02-21T12:29:08;117.50;;;6.60;;
86077;SDS011;76680;59.304;18.294;2024-02-21T12:31:37;65.00;;;5.60;;
86077;SDS011;76680;59.304;18.294;2024-02-21T12:34:03;192.77;;;9.87;;
86077;SDS011;76680;59.304;18.294;2024-02-21T12:36:29;168.83;;;9.67;;
86077;SDS011;76680;59.304;18.294;2024-02-21T12:38:56;201.00;;;14.80;;
86077;SDS011;76680;59.304;18.294;2024-02-21T12:41:21;173.87;;;8.53;;
86077;SDS011;76680;59.304;18.294;2024-02-21T12:43:47;51.07;;;6.47;;
86077;SDS011;76680;59.304;18.294;2024-02-21T12:46:12;69.77;;;7.77;;
86077;SDS011;76680;59.304;18.294;2024-02-21T12:48:38;35.43;;;5.60;;
86077;SDS011;76680;59.304;18.294;2024-02-21T12:51:04;68.93;;;7.60;;
86077;SDS011;76680;59.304;18.294;2024-02-21T12:53:30;46.87;;;7.67;;
86077;SDS011;76680;59.304;18.294;2024-02-21T12:55:56;20.33;;;6.70;;
86077;SDS011;76680;59.304;18.294;2024-02-21T12:58:21;21.60;;;5.80;;
86077;SDS011;76680;59.304;18.294;2024-02-21T13:00:47;24.13;;;5.50;;
86077;SDS011;76680;59.304;18.294;2024-02-21T13:03:13;14.37;;;4.30;;
86077;SDS011;76680;59.304;18.294;2024-02-21T13:05:39;7.07;;;3.60;;
86077;SDS011;76680;59.304;18.294;2024-02-21T13:08:08;12.60;;;4.23;;
86077;SDS011;76680;59.304;18.294;2024-02-21T13:10:34;6.10;;;3.30;;
86077;SDS011;76680;59.304;18.294;2024-02-21T13:13:00;5.90;;;3.43;;
86077;SDS011;76680;59.304;18.294;2024-02-21T13:15:26;4.83;;;3.10;;
86077;SDS011;76680;59.304;18.294;2024-02-21T13:17:56;6.20;;;2.73;;
86077;SDS011;76680;59.304;18.294;2024-02-21T13:20:22;4.90;;;2.27;;
86077;SDS011;76680;59.304;18.294;2024-02-21T13:22:48;3.93;;;2.23;;
86077;SDS011;76680;59.304;18.294;2024-02-21T13:25:13;3.87;;;2.50;;
86077;SDS011;76680;59.304;18.294;2024-02-21T13:27:45;3.20;;;1.87;;
86077;SDS011;76680;59.304;18.294;2024-02-21T13:30:11;3.40;;;2.60;;
86077;SDS011;76680;59.304;18.294;2024-02-21T13:32:37;4.00;;;2.50;;
86077;SDS011;76680;59.304;18.294;2024-02-21T13:35:02;6.17;;;2.40;;
86077;SDS011;76680;59.304;18.294;2024-02-21T13:37:28;8.70;;;2.27;;
86077;SDS011;76680;59.304;18.294;2024-02-21T13:39:54;9.00;;;3.23;;
86077;SDS011;76680;59.304;18.294;2024-02-21T13:42:20;10.50;;;3.30;;
86077;SDS011;76680;59.304;18.294;2024-02-21T13:44:45;9.83;;;3.10;;
86077;SDS011;76680;59.304;18.294;2024-02-21T13:47:14;14.50;;;2.80;;
86077;SDS011;76680;59.304;18.294;2024-02-21T13:49:40;5.10;;;3.07;;
86077;SDS011;76680;59.304;18.294;2024-02-21T13:52:06;10.77;;;3.33;;
86077;SDS011;76680;59.304;18.294;2024-02-21T13:54:31;9.00;;;3.17;;
86077;SDS011;76680;59.304;18.294;2024-02-21T13:56:57;26.57;;;3.43;;
86077;SDS011;76680;59.304;18.294;2024-02-21T13:59:22;18.23;;;3.57;;
86077;SDS011;76680;59.304;18.294;2024-02-21T14:01:48;15.33;;;3.53;;
86077;SDS011;76680;59.304;18.294;2024-02-21T14:04:13;42.53;;;4.17;;
86077;SDS011;76680;59.304;18.294;2024-02-21T14:06:39;45.70;;;4.20;;
86077;SDS011;76680;59.304;18.294;2024-02-21T14:09:08;12.83;;;4.10;;
86077;SDS011;76680;59.304;18.294;2024-02-21T14:11:34;36.83;;;3.47;;
86077;SDS011;76680;59.304;18.294;2024-02-21T14:14:00;65.87;;;5.20;;
86077;SDS011;76680;59.304;18.294;2024-02-21T14:16:26;102.03;;;4.97;;
86077;SDS011;76680;59.304;18.294;2024-02-21T14:18:52;48.97;;;3.57;;
86077;SDS011;76680;59.304;18.294;2024-02-21T14:21:19;111.97;;;6.80;;
86077;SDS011;76680;59.304;18.294;2024-02-21T14:23:44;66.20;;;5.03;;
86077;SDS011;76680;59.304;18.294;2024-02-21T14:26:10;117.37;;;7.03;;
86077;SDS011;76680;59.304;18.294;2024-02-21T14:28:35;122.90;;;6.27;;
86077;SDS011;76680;59.304;18.294;2024-02-21T14:31:01;153.00;;;7.80;;
86077;SDS011;76680;59.304;18.294;2024-02-21T14:33:28;202.23;;;9.10;;
86077;SDS011;76680;59.304;18.294;2024-02-21T14:35:55;223.40;;;9.70;;